Sn Luis Obisp, California
Current Conditions -  °F | °C
As of 1:56 PM on Sunday 23 Nov 2014 (Local Time) from KSBP Reporting Station
Clear Clear  
Wind Chill: 71°   Ceiling: Unl
Heat Index: 71°   Visibility: 10mi
Dew Point: 34°   Wind: 3mph
Humidity: 26%   Direction: NA
Pressure: 30.2"   Gusts: NA
Location:  35.2807°N, 120.661°W
Report Text: KSBP 232156Z VRB03KT 10SM CLR 22/01 A3020 RMK AO2 SLP225 T02170011
Loading
Personal Weather Stations






























Interactive Weather Map New forecast layout! Learn more

10-Day Weather Forecast

Advertisements
Track Severe Weather on mobile